sensor_id;sensor_type;location;lat;lon;timestamp;P1;durP1;ratioP1;P2;durP2;ratioP2
43813;SDS011;29669;55.706;37.656;2022-11-24T00:02:36;8.68;;;4.50;;
43813;SDS011;29669;55.706;37.656;2022-11-24T00:05:24;9.32;;;4.90;;
43813;SDS011;29669;55.706;37.656;2022-11-24T00:08:12;8.85;;;4.53;;
43813;SDS011;29669;55.706;37.656;2022-11-24T00:11:01;8.13;;;5.03;;
43813;SDS011;29669;55.706;37.656;2022-11-24T00:13:54;6.97;;;4.65;;
43813;SDS011;29669;55.706;37.656;2022-11-24T00:16:42;7.97;;;4.40;;
43813;SDS011;29669;55.706;37.656;2022-11-24T00:19:30;7.28;;;4.10;;
43813;SDS011;29669;55.706;37.656;2022-11-24T00:22:18;8.77;;;4.50;;
43813;SDS011;29669;55.706;37.656;2022-11-24T00:25:06;9.70;;;4.28;;
43813;SDS011;29669;55.706;37.656;2022-11-24T00:27:54;7.45;;;4.18;;
43813;SDS011;29669;55.706;37.656;2022-11-24T00:30:41;7.22;;;4.10;;
43813;SDS011;29669;55.706;37.656;2022-11-24T00:33:29;9.95;;;4.70;;
43813;SDS011;29669;55.706;37.656;2022-11-24T00:36:18;8.07;;;3.67;;
43813;SDS011;29669;55.706;37.656;2022-11-24T00:39:09;8.05;;;4.35;;
43813;SDS011;29669;55.706;37.656;2022-11-24T00:41:58;8.02;;;3.97;;
43813;SDS011;29669;55.706;37.656;2022-11-24T00:44:46;8.93;;;4.22;;
43813;SDS011;29669;55.706;37.656;2022-11-24T00:47:34;9.85;;;4.25;;
43813;SDS011;29669;55.706;37.656;2022-11-24T00:50:22;6.95;;;3.75;;
43813;SDS011;29669;55.706;37.656;2022-11-24T00:53:09;11.15;;;4.63;;
43813;SDS011;29669;55.706;37.656;2022-11-24T00:55:57;8.98;;;4.28;;
43813;SDS011;29669;55.706;37.656;2022-11-24T00:58:45;5.97;;;3.67;;
43813;SDS011;29669;55.706;37.656;2022-11-24T01:01:33;7.82;;;3.58;;
43813;SDS011;29669;55.706;37.656;2022-11-24T01:04:21;7.68;;;4.03;;
43813;SDS011;29669;55.706;37.656;2022-11-24T01:07:09;6.80;;;4.30;;
43813;SDS011;29669;55.706;37.656;2022-11-24T01:09:57;7.28;;;3.92;;
43813;SDS011;29669;55.706;37.656;2022-11-24T01:12:44;6.80;;;4.20;;
43813;SDS011;29669;55.706;37.656;2022-11-24T01:15:33;7.43;;;3.83;;
43813;SDS011;29669;55.706;37.656;2022-11-24T01:18:24;10.10;;;4.63;;
43813;SDS011;29669;55.706;37.656;2022-11-24T01:21:12;6.30;;;3.88;;
43813;SDS011;29669;55.706;37.656;2022-11-24T01:24:01;11.85;;;4.65;;
43813;SDS011;29669;55.706;37.656;2022-11-24T01:26:49;6.53;;;4.43;;
43813;SDS011;29669;55.706;37.656;2022-11-24T01:29:37;8.40;;;4.20;;
43813;SDS011;29669;55.706;37.656;2022-11-24T01:32:25;7.03;;;4.28;;
43813;SDS011;29669;55.706;37.656;2022-11-24T01:35:12;8.43;;;4.28;;
43813;SDS011;29669;55.706;37.656;2022-11-24T01:38:00;8.93;;;3.80;;
43813;SDS011;29669;55.706;37.656;2022-11-24T01:40:48;9.80;;;4.43;;
43813;SDS011;29669;55.706;37.656;2022-11-24T01:43:36;5.35;;;4.00;;
43813;SDS011;29669;55.706;37.656;2022-11-24T01:46:29;9.05;;;4.22;;
43813;SDS011;29669;55.706;37.656;2022-11-24T01:49:20;6.20;;;3.85;;
43813;SDS011;29669;55.706;37.656;2022-11-24T01:55:31;6.28;;;3.50;;
43813;SDS011;29669;55.706;37.656;2022-11-24T01:58:23;8.05;;;4.82;;
43813;SDS011;29669;55.706;37.656;2022-11-24T02:01:16;12.55;;;4.53;;
43813;SDS011;29669;55.706;37.656;2022-11-24T02:04:05;11.23;;;4.63;;
43813;SDS011;29669;55.706;37.656;2022-11-24T02:06:56;9.10;;;5.38;;
43813;SDS011;29669;55.706;37.656;2022-11-24T02:09:50;10.32;;;5.05;;
43813;SDS011;29669;55.706;37.656;2022-11-24T02:12:46;11.07;;;4.32;;
43813;SDS011;29669;55.706;37.656;2022-11-24T02:15:36;8.65;;;4.28;;
43813;SDS011;29669;55.706;37.656;2022-11-24T02:18:24;12.05;;;4.28;;
43813;SDS011;29669;55.706;37.656;2022-11-24T02:21:12;9.60;;;5.03;;
43813;SDS011;29669;55.706;37.656;2022-11-24T02:24:07;10.95;;;4.75;;
43813;SDS011;29669;55.706;37.656;2022-11-24T02:26:59;9.90;;;4.25;;
43813;SDS011;29669;55.706;37.656;2022-11-24T02:29:47;8.55;;;4.05;;
43813;SDS011;29669;55.706;37.656;2022-11-24T02:32:35;9.35;;;4.68;;
43813;SDS011;29669;55.706;37.656;2022-11-24T02:35:26;9.40;;;4.70;;
43813;SDS011;29669;55.706;37.656;2022-11-24T02:38:14;8.45;;;4.80;;
43813;SDS011;29669;55.706;37.656;2022-11-24T02:41:04;8.32;;;4.25;;
43813;SDS011;29669;55.706;37.656;2022-11-24T02:43:54;11.25;;;5.53;;
43813;SDS011;29669;55.706;37.656;2022-11-24T02:46:44;13.18;;;5.30;;
43813;SDS011;29669;55.706;37.656;2022-11-24T02:49:32;7.78;;;4.68;;
43813;SDS011;29669;55.706;37.656;2022-11-24T02:52:20;10.02;;;5.18;;
43813;SDS011;29669;55.706;37.656;2022-11-24T02:55:07;9.82;;;5.15;;
43813;SDS011;29669;55.706;37.656;2022-11-24T02:57:56;12.43;;;4.97;;
43813;SDS011;29669;55.706;37.656;2022-11-24T03:00:43;13.98;;;5.35;;
43813;SDS011;29669;55.706;37.656;2022-11-24T03:03:31;11.00;;;4.80;;
43813;SDS011;29669;55.706;37.656;2022-11-24T03:06:19;8.57;;;4.65;;
43813;SDS011;29669;55.706;37.656;2022-11-24T03:09:07;8.18;;;3.83;;
43813;SDS011;29669;55.706;37.656;2022-11-24T03:11:57;13.25;;;6.70;;
43813;SDS011;29669;55.706;37.656;2022-11-24T03:14:45;12.10;;;5.38;;
43813;SDS011;29669;55.706;37.656;2022-11-24T03:17:32;13.90;;;5.90;;
43813;SDS011;29669;55.706;37.656;2022-11-24T03:20:20;9.85;;;5.30;;
43813;SDS011;29669;55.706;37.656;2022-11-24T03:23:08;11.98;;;5.93;;
43813;SDS011;29669;55.706;37.656;2022-11-24T03:26:09;12.60;;;6.60;;
43813;SDS011;29669;55.706;37.656;2022-11-24T03:28:59;12.90;;;6.45;;
43813;SDS011;29669;55.706;37.656;2022-11-24T03:31:47;10.50;;;6.28;;
43813;SDS011;29669;55.706;37.656;2022-11-24T03:34:34;13.98;;;6.53;;
43813;SDS011;29669;55.706;37.656;2022-11-24T03:37:22;32.92;;;13.27;;
43813;SDS011;29669;55.706;37.656;2022-11-24T03:40:10;14.20;;;6.45;;
43813;SDS011;29669;55.706;37.656;2022-11-24T03:42:58;9.20;;;5.15;;
43813;SDS011;29669;55.706;37.656;2022-11-24T03:45:47;15.77;;;7.63;;
43813;SDS011;29669;55.706;37.656;2022-11-24T03:48:36;9.88;;;5.07;;
43813;SDS011;29669;55.706;37.656;2022-11-24T03:51:23;16.60;;;5.97;;
43813;SDS011;29669;55.706;37.656;2022-11-24T03:54:11;12.70;;;5.57;;
43813;SDS011;29669;55.706;37.656;2022-11-24T03:56:59;11.52;;;5.97;;
43813;SDS011;29669;55.706;37.656;2022-11-24T03:59:47;11.45;;;6.05;;
43813;SDS011;29669;55.706;37.656;2022-11-24T04:02:35;11.48;;;6.50;;
43813;SDS011;29669;55.706;37.656;2022-11-24T04:05:23;12.77;;;5.40;;
43813;SDS011;29669;55.706;37.656;2022-11-24T04:08:11;16.95;;;5.78;;
43813;SDS011;29669;55.706;37.656;2022-11-24T04:10:59;13.85;;;6.15;;
43813;SDS011;29669;55.706;37.656;2022-11-24T04:13:47;17.15;;;7.75;;
43813;SDS011;29669;55.706;37.656;2022-11-24T04:16:35;15.40;;;6.28;;
43813;SDS011;29669;55.706;37.656;2022-11-24T04:19:23;12.85;;;6.03;;
43813;SDS011;29669;55.706;37.656;2022-11-24T04:22:11;16.63;;;8.65;;
43813;SDS011;29669;55.706;37.656;2022-11-24T04:24:59;11.55;;;5.95;;
43813;SDS011;29669;55.706;37.656;2022-11-24T04:27:49;13.85;;;6.25;;
43813;SDS011;29669;55.706;37.656;2022-11-24T04:30:41;16.60;;;7.75;;
43813;SDS011;29669;55.706;37.656;2022-11-24T04:33:31;19.10;;;6.72;;
43813;SDS011;29669;55.706;37.656;2022-11-24T04:36:19;12.25;;;5.50;;
43813;SDS011;29669;55.706;37.656;2022-11-24T04:39:07;19.88;;;6.97;;
43813;SDS011;29669;55.706;37.656;2022-11-24T04:42:06;13.63;;;5.45;;
43813;SDS011;29669;55.706;37.656;2022-11-24T04:44:54;15.50;;;6.57;;
43813;SDS011;29669;55.706;37.656;2022-11-24T04:47:42;18.58;;;6.78;;
43813;SDS011;29669;55.706;37.656;2022-11-24T04:50:29;20.65;;;7.60;;
43813;SDS011;29669;55.706;37.656;2022-11-24T04:53:18;19.85;;;7.47;;
43813;SDS011;29669;55.706;37.656;2022-11-24T04:56:07;20.40;;;7.90;;
43813;SDS011;29669;55.706;37.656;2022-11-24T04:58:59;27.88;;;10.13;;
43813;SDS011;29669;55.706;37.656;2022-11-24T05:01:54;17.65;;;8.05;;
43813;SDS011;29669;55.706;37.656;2022-11-24T05:04:44;11.88;;;6.13;;
43813;SDS011;29669;55.706;37.656;2022-11-24T05:07:32;19.13;;;8.00;;
43813;SDS011;29669;55.706;37.656;2022-11-24T05:10:21;19.23;;;7.03;;
43813;SDS011;29669;55.706;37.656;2022-11-24T05:13:21;23.13;;;9.07;;
43813;SDS011;29669;55.706;37.656;2022-11-24T05:16:10;22.45;;;8.23;;
43813;SDS011;29669;55.706;37.656;2022-11-24T05:18:59;14.20;;;7.53;;
43813;SDS011;29669;55.706;37.656;2022-11-24T05:21:47;15.30;;;7.20;;
43813;SDS011;29669;55.706;37.656;2022-11-24T05:24:35;9.05;;;4.88;;
43813;SDS011;29669;55.706;37.656;2022-11-24T05:27:26;12.98;;;6.50;;
43813;SDS011;29669;55.706;37.656;2022-11-24T05:30:14;20.20;;;8.23;;
43813;SDS011;29669;55.706;37.656;2022-11-24T05:33:06;24.95;;;11.02;;
43813;SDS011;29669;55.706;37.656;2022-11-24T05:35:59;20.48;;;9.55;;
43813;SDS011;29669;55.706;37.656;2022-11-24T05:38:50;12.73;;;7.82;;
43813;SDS011;29669;55.706;37.656;2022-11-24T05:41:38;12.93;;;6.38;;
43813;SDS011;29669;55.706;37.656;2022-11-24T05:44:29;12.32;;;5.68;;
43813;SDS011;29669;55.706;37.656;2022-11-24T05:47:18;19.33;;;7.30;;
43813;SDS011;29669;55.706;37.656;2022-11-24T05:50:13;13.57;;;6.78;;
43813;SDS011;29669;55.706;37.656;2022-11-24T05:53:09;22.55;;;9.02;;
43813;SDS011;29669;55.706;37.656;2022-11-24T05:56:02;17.10;;;7.93;;
43813;SDS011;29669;55.706;37.656;2022-11-24T05:58:51;19.58;;;6.75;;
43813;SDS011;29669;55.706;37.656;2022-11-24T06:01:39;16.73;;;7.50;;
43813;SDS011;29669;55.706;37.656;2022-11-24T06:04:28;16.05;;;7.43;;
43813;SDS011;29669;55.706;37.656;2022-11-24T06:07:18;19.88;;;8.25;;
43813;SDS011;29669;55.706;37.656;2022-11-24T06:10:16;14.32;;;6.72;;
43813;SDS011;29669;55.706;37.656;2022-11-24T06:13:10;12.55;;;4.97;;
43813;SDS011;29669;55.706;37.656;2022-11-24T06:16:01;13.25;;;4.68;;
43813;SDS011;29669;55.706;37.656;2022-11-24T06:18:53;10.90;;;4.93;;
43813;SDS011;29669;55.706;37.656;2022-11-24T06:21:47;13.52;;;6.25;;
43813;SDS011;29669;55.706;37.656;2022-11-24T06:24:38;10.07;;;5.47;;
43813;SDS011;29669;55.706;37.656;2022-11-24T06:27:29;26.98;;;9.48;;
43813;SDS011;29669;55.706;37.656;2022-11-24T06:30:19;13.18;;;6.15;;
43813;SDS011;29669;55.706;37.656;2022-11-24T06:33:08;16.52;;;5.82;;
43813;SDS011;29669;55.706;37.656;2022-11-24T06:35:59;18.83;;;7.05;;
43813;SDS011;29669;55.706;37.656;2022-11-24T06:38:48;23.92;;;10.10;;
43813;SDS011;29669;55.706;37.656;2022-11-24T06:41:39;14.35;;;7.00;;
43813;SDS011;29669;55.706;37.656;2022-11-24T06:44:30;12.05;;;6.10;;
43813;SDS011;29669;55.706;37.656;2022-11-24T06:47:19;12.88;;;5.40;;
43813;SDS011;29669;55.706;37.656;2022-11-24T06:50:08;13.57;;;6.13;;
43813;SDS011;29669;55.706;37.656;2022-11-24T06:53:05;11.40;;;5.07;;
43813;SDS011;29669;55.706;37.656;2022-11-24T06:55:56;19.65;;;6.90;;
43813;SDS011;29669;55.706;37.656;2022-11-24T06:58:49;11.32;;;6.32;;
43813;SDS011;29669;55.706;37.656;2022-11-24T07:01:39;12.90;;;5.20;;
43813;SDS011;29669;55.706;37.656;2022-11-24T07:04:28;10.98;;;5.85;;
43813;SDS011;29669;55.706;37.656;2022-11-24T07:07:16;12.43;;;7.13;;
43813;SDS011;29669;55.706;37.656;2022-11-24T07:10:07;12.30;;;6.43;;
43813;SDS011;29669;55.706;37.656;2022-11-24T07:12:59;19.27;;;8.02;;
43813;SDS011;29669;55.706;37.656;2022-11-24T07:19:02;18.15;;;6.10;;
43813;SDS011;29669;55.706;37.656;2022-11-24T07:21:53;14.57;;;5.50;;
43813;SDS011;29669;55.706;37.656;2022-11-24T07:25:02;12.55;;;6.13;;
43813;SDS011;29669;55.706;37.656;2022-11-24T07:28:02;20.48;;;8.00;;
43813;SDS011;29669;55.706;37.656;2022-11-24T07:30:56;13.05;;;6.00;;
43813;SDS011;29669;55.706;37.656;2022-11-24T07:34:01;23.90;;;10.07;;
43813;SDS011;29669;55.706;37.656;2022-11-24T07:36:53;16.05;;;7.13;;
43813;SDS011;29669;55.706;37.656;2022-11-24T07:39:48;10.48;;;5.38;;
43813;SDS011;29669;55.706;37.656;2022-11-24T07:42:43;10.17;;;4.57;;
43813;SDS011;29669;55.706;37.656;2022-11-24T07:45:33;14.43;;;7.13;;
43813;SDS011;29669;55.706;37.656;2022-11-24T07:48:23;16.90;;;7.50;;
43813;SDS011;29669;55.706;37.656;2022-11-24T07:51:14;15.88;;;7.35;;
43813;SDS011;29669;55.706;37.656;2022-11-24T07:54:08;14.95;;;6.25;;
43813;SDS011;29669;55.706;37.656;2022-11-24T07:56:56;11.20;;;5.60;;
43813;SDS011;29669;55.706;37.656;2022-11-24T07:59:58;10.07;;;5.13;;
43813;SDS011;29669;55.706;37.656;2022-11-24T08:02:53;10.10;;;4.72;;
43813;SDS011;29669;55.706;37.656;2022-11-24T08:05:58;20.30;;;7.68;;
43813;SDS011;29669;55.706;37.656;2022-11-24T08:09:15;13.10;;;5.07;;
43813;SDS011;29669;55.706;37.656;2022-11-24T08:12:11;9.75;;;5.07;;
43813;SDS011;29669;55.706;37.656;2022-11-24T08:15:10;20.02;;;7.30;;
43813;SDS011;29669;55.706;37.656;2022-11-24T08:18:12;13.70;;;6.55;;
43813;SDS011;29669;55.706;37.656;2022-11-24T08:21:17;18.25;;;7.10;;
43813;SDS011;29669;55.706;37.656;2022-11-24T08:27:29;13.18;;;5.97;;
43813;SDS011;29669;55.706;37.656;2022-11-24T08:31:05;13.75;;;5.97;;
43813;SDS011;29669;55.706;37.656;2022-11-24T08:34:12;9.65;;;5.30;;
43813;SDS011;29669;55.706;37.656;2022-11-24T08:37:19;12.43;;;5.65;;
43813;SDS011;29669;55.706;37.656;2022-11-24T08:40:44;15.80;;;5.57;;
43813;SDS011;29669;55.706;37.656;2022-11-24T08:43:39;15.32;;;6.82;;
43813;SDS011;29669;55.706;37.656;2022-11-24T08:47:13;14.38;;;6.40;;
43813;SDS011;29669;55.706;37.656;2022-11-24T08:50:20;15.23;;;6.25;;
43813;SDS011;29669;55.706;37.656;2022-11-24T08:54:03;11.63;;;6.30;;
43813;SDS011;29669;55.706;37.656;2022-11-24T08:57:49;13.25;;;6.20;;
43813;SDS011;29669;55.706;37.656;2022-11-24T09:01:29;14.45;;;6.60;;
43813;SDS011;29669;55.706;37.656;2022-11-24T09:05:45;11.73;;;5.97;;
43813;SDS011;29669;55.706;37.656;2022-11-24T09:15:16;16.38;;;7.18;;
43813;SDS011;29669;55.706;37.656;2022-11-24T09:19:36;18.10;;;6.25;;
43813;SDS011;29669;55.706;37.656;2022-11-24T09:27:33;15.85;;;7.63;;
43813;SDS011;29669;55.706;37.656;2022-11-24T09:31:30;12.38;;;5.40;;
43813;SDS011;29669;55.706;37.656;2022-11-24T09:36:05;15.18;;;6.03;;
43813;SDS011;29669;55.706;37.656;2022-11-24T09:44:29;22.58;;;7.47;;
43813;SDS011;29669;55.706;37.656;2022-11-24T09:48:32;13.27;;;5.50;;
43813;SDS011;29669;55.706;37.656;2022-11-24T09:52:32;13.50;;;7.30;;
43813;SDS011;29669;55.706;37.656;2022-11-24T09:56:33;13.20;;;5.78;;
43813;SDS011;29669;55.706;37.656;2022-11-24T10:06:03;22.98;;;7.82;;
43813;SDS011;29669;55.706;37.656;2022-11-24T10:18:54;14.40;;;5.78;;
43813;SDS011;29669;55.706;37.656;2022-11-24T10:26:41;17.27;;;8.05;;
43813;SDS011;29669;55.706;37.656;2022-11-24T10:30:27;18.48;;;7.35;;
43813;SDS011;29669;55.706;37.656;2022-11-24T10:33:54;14.30;;;7.90;;
43813;SDS011;29669;55.706;37.656;2022-11-24T10:38:12;10.85;;;6.72;;
43813;SDS011;29669;55.706;37.656;2022-11-24T10:41:52;14.70;;;6.95;;
43813;SDS011;29669;55.706;37.656;2022-11-24T10:45:39;16.30;;;6.82;;
43813;SDS011;29669;55.706;37.656;2022-11-24T10:54:17;12.40;;;5.63;;
43813;SDS011;29669;55.706;37.656;2022-11-24T10:58:16;14.48;;;5.97;;
43813;SDS011;29669;55.706;37.656;2022-11-24T11:07:41;12.45;;;5.43;;
43813;SDS011;29669;55.706;37.656;2022-11-24T11:11:36;8.35;;;4.60;;
43813;SDS011;29669;55.706;37.656;2022-11-24T11:19:37;13.93;;;4.87;;
43813;SDS011;29669;55.706;37.656;2022-11-24T11:23:31;12.32;;;5.15;;
43813;SDS011;29669;55.706;37.656;2022-11-24T11:27:46;18.50;;;6.40;;
43813;SDS011;29669;55.706;37.656;2022-11-24T11:32:18;11.17;;;5.80;;
43813;SDS011;29669;55.706;37.656;2022-11-24T11:36:11;15.20;;;5.53;;
43813;SDS011;29669;55.706;37.656;2022-11-24T11:39:31;15.00;;;5.43;;
43813;SDS011;29669;55.706;37.656;2022-11-24T11:43:27;12.43;;;5.13;;
43813;SDS011;29669;55.706;37.656;2022-11-24T11:46:49;16.42;;;7.93;;
43813;SDS011;29669;55.706;37.656;2022-11-24T11:50:21;11.20;;;5.30;;
43813;SDS011;29669;55.706;37.656;2022-11-24T11:54:24;16.10;;;8.07;;
43813;SDS011;29669;55.706;37.656;2022-11-24T12:11:49;24.52;;;9.73;;
43813;SDS011;29669;55.706;37.656;2022-11-24T14:40:35;13.82;;;6.48;;
43813;SDS011;29669;55.706;37.656;2022-11-24T14:48:26;14.88;;;6.72;;
43813;SDS011;29669;55.706;37.656;2022-11-24T14:51:19;15.82;;;7.93;;
43813;SDS011;29669;55.706;37.656;2022-11-24T14:54:27;16.27;;;8.32;;
43813;SDS011;29669;55.706;37.656;2022-11-24T14:57:22;11.48;;;5.30;;
43813;SDS011;29669;55.706;37.656;2022-11-24T15:00:17;12.15;;;6.53;;
43813;SDS011;29669;55.706;37.656;2022-11-24T15:03:14;17.58;;;7.28;;
43813;SDS011;29669;55.706;37.656;2022-11-24T15:06:10;12.98;;;6.15;;
43813;SDS011;29669;55.706;37.656;2022-11-24T15:09:06;11.93;;;5.70;;
43813;SDS011;29669;55.706;37.656;2022-11-24T15:12:06;22.33;;;6.10;;
43813;SDS011;29669;55.706;37.656;2022-11-24T15:18:02;15.52;;;6.72;;
43813;SDS011;29669;55.706;37.656;2022-11-24T15:20:52;13.63;;;5.70;;
43813;SDS011;29669;55.706;37.656;2022-11-24T15:23:40;12.68;;;6.15;;
43813;SDS011;29669;55.706;37.656;2022-11-24T15:26:29;9.20;;;4.78;;
43813;SDS011;29669;55.706;37.656;2022-11-24T15:29:26;14.18;;;6.07;;
43813;SDS011;29669;55.706;37.656;2022-11-24T15:32:14;19.23;;;7.85;;
43813;SDS011;29669;55.706;37.656;2022-11-24T15:35:02;12.43;;;5.43;;
43813;SDS011;29669;55.706;37.656;2022-11-24T15:37:50;17.10;;;6.97;;
43813;SDS011;29669;55.706;37.656;2022-11-24T15:40:39;10.45;;;4.97;;
43813;SDS011;29669;55.706;37.656;2022-11-24T15:43:41;13.40;;;6.38;;
43813;SDS011;29669;55.706;37.656;2022-11-24T15:46:29;12.25;;;5.25;;
43813;SDS011;29669;55.706;37.656;2022-11-24T15:49:24;10.52;;;5.25;;
43813;SDS011;29669;55.706;37.656;2022-11-24T15:52:11;15.93;;;6.60;;
43813;SDS011;29669;55.706;37.656;2022-11-24T15:55:03;14.02;;;7.35;;
43813;SDS011;29669;55.706;37.656;2022-11-24T15:57:52;12.43;;;6.78;;
43813;SDS011;29669;55.706;37.656;2022-11-24T16:00:40;10.10;;;5.28;;
43813;SDS011;29669;55.706;37.656;2022-11-24T16:03:28;10.60;;;4.88;;
43813;SDS011;29669;55.706;37.656;2022-11-24T16:06:34;12.35;;;6.47;;
43813;SDS011;29669;55.706;37.656;2022-11-24T16:09:22;8.65;;;4.93;;
43813;SDS011;29669;55.706;37.656;2022-11-24T16:12:09;10.38;;;5.95;;
43813;SDS011;29669;55.706;37.656;2022-11-24T16:14:57;17.63;;;7.43;;
43813;SDS011;29669;55.706;37.656;2022-11-24T16:17:45;16.48;;;7.53;;
43813;SDS011;29669;55.706;37.656;2022-11-24T16:20:33;13.35;;;6.20;;
43813;SDS011;29669;55.706;37.656;2022-11-24T16:23:22;12.38;;;5.13;;
43813;SDS011;29669;55.706;37.656;2022-11-24T16:26:10;10.10;;;5.70;;
43813;SDS011;29669;55.706;37.656;2022-11-24T16:28:57;26.05;;;10.25;;
43813;SDS011;29669;55.706;37.656;2022-11-24T16:31:45;12.70;;;6.50;;
43813;SDS011;29669;55.706;37.656;2022-11-24T16:34:33;12.27;;;6.50;;
43813;SDS011;29669;55.706;37.656;2022-11-24T16:37:21;16.08;;;5.70;;
43813;SDS011;29669;55.706;37.656;2022-11-24T16:40:18;10.00;;;5.22;;
43813;SDS011;29669;55.706;37.656;2022-11-24T16:49:15;14.80;;;6.03;;
43813;SDS011;29669;55.706;37.656;2022-11-24T16:52:03;16.73;;;7.15;;
43813;SDS011;29669;55.706;37.656;2022-11-24T16:54:51;12.25;;;6.40;;
43813;SDS011;29669;55.706;37.656;2022-11-24T16:57:38;13.13;;;6.32;;
43813;SDS011;29669;55.706;37.656;2022-11-24T17:00:26;16.13;;;6.28;;
43813;SDS011;29669;55.706;37.656;2022-11-24T17:03:14;15.43;;;6.65;;
43813;SDS011;29669;55.706;37.656;2022-11-24T17:06:02;13.88;;;5.43;;
43813;SDS011;29669;55.706;37.656;2022-11-24T17:08:51;11.32;;;5.47;;
43813;SDS011;29669;55.706;37.656;2022-11-24T17:11:41;8.45;;;4.38;;
43813;SDS011;29669;55.706;37.656;2022-11-24T17:14:29;9.65;;;5.50;;
43813;SDS011;29669;55.706;37.656;2022-11-24T17:17:17;11.27;;;5.20;;
43813;SDS011;29669;55.706;37.656;2022-11-24T17:20:04;11.55;;;5.45;;
43813;SDS011;29669;55.706;37.656;2022-11-24T17:22:53;8.45;;;4.63;;
43813;SDS011;29669;55.706;37.656;2022-11-24T17:25:40;8.70;;;4.63;;
43813;SDS011;29669;55.706;37.656;2022-11-24T17:28:28;12.18;;;5.63;;
43813;SDS011;29669;55.706;37.656;2022-11-24T17:31:18;11.90;;;5.68;;
43813;SDS011;29669;55.706;37.656;2022-11-24T17:34:22;19.95;;;6.78;;
43813;SDS011;29669;55.706;37.656;2022-11-24T17:37:09;11.60;;;5.28;;
43813;SDS011;29669;55.706;37.656;2022-11-24T17:39:57;11.05;;;5.30;;
43813;SDS011;29669;55.706;37.656;2022-11-24T17:43:15;14.57;;;6.43;;
43813;SDS011;29669;55.706;37.656;2022-11-24T17:46:03;11.02;;;5.72;;
43813;SDS011;29669;55.706;37.656;2022-11-24T17:48:52;11.18;;;5.18;;
43813;SDS011;29669;55.706;37.656;2022-11-24T17:51:40;11.70;;;4.57;;
43813;SDS011;29669;55.706;37.656;2022-11-24T17:54:28;9.77;;;5.13;;
43813;SDS011;29669;55.706;37.656;2022-11-24T17:57:33;13.43;;;6.28;;
43813;SDS011;29669;55.706;37.656;2022-11-24T18:00:21;11.73;;;5.90;;
43813;SDS011;29669;55.706;37.656;2022-11-24T18:03:09;8.63;;;4.80;;
43813;SDS011;29669;55.706;37.656;2022-11-24T18:06:04;10.02;;;4.30;;
43813;SDS011;29669;55.706;37.656;2022-11-24T18:08:54;10.25;;;5.20;;
43813;SDS011;29669;55.706;37.656;2022-11-24T18:11:43;8.65;;;4.80;;
43813;SDS011;29669;55.706;37.656;2022-11-24T18:14:31;7.80;;;4.47;;
43813;SDS011;29669;55.706;37.656;2022-11-24T18:17:20;8.82;;;4.90;;
43813;SDS011;29669;55.706;37.656;2022-11-24T18:20:08;10.75;;;4.88;;
43813;SDS011;29669;55.706;37.656;2022-11-24T18:22:56;7.20;;;4.30;;
43813;SDS011;29669;55.706;37.656;2022-11-24T18:25:59;9.82;;;4.35;;
43813;SDS011;29669;55.706;37.656;2022-11-24T18:29:00;5.68;;;3.78;;
43813;SDS011;29669;55.706;37.656;2022-11-24T18:32:37;9.48;;;4.50;;
43813;SDS011;29669;55.706;37.656;2022-11-24T18:35:25;8.07;;;3.63;;
43813;SDS011;29669;55.706;37.656;2022-11-24T18:38:13;8.52;;;4.38;;
43813;SDS011;29669;55.706;37.656;2022-11-24T18:41:01;7.93;;;3.95;;
43813;SDS011;29669;55.706;37.656;2022-11-24T18:43:50;8.40;;;4.47;;
43813;SDS011;29669;55.706;37.656;2022-11-24T18:46:38;8.15;;;4.57;;
43813;SDS011;29669;55.706;37.656;2022-11-24T18:49:26;10.05;;;4.55;;
43813;SDS011;29669;55.706;37.656;2022-11-24T18:52:24;9.13;;;4.47;;
43813;SDS011;29669;55.706;37.656;2022-11-24T18:55:12;11.20;;;4.50;;
43813;SDS011;29669;55.706;37.656;2022-11-24T18:58:02;8.68;;;4.68;;
43813;SDS011;29669;55.706;37.656;2022-11-24T19:01:21;12.38;;;5.15;;
43813;SDS011;29669;55.706;37.656;2022-11-24T19:04:11;17.20;;;6.93;;
43813;SDS011;29669;55.706;37.656;2022-11-24T19:07:07;10.13;;;5.22;;
43813;SDS011;29669;55.706;37.656;2022-11-24T19:09:59;10.48;;;4.85;;
43813;SDS011;29669;55.706;37.656;2022-11-24T19:13:11;9.88;;;5.38;;
43813;SDS011;29669;55.706;37.656;2022-11-24T19:20:54;7.80;;;3.88;;
43813;SDS011;29669;55.706;37.656;2022-11-24T19:23:43;10.32;;;4.70;;
43813;SDS011;29669;55.706;37.656;2022-11-24T19:26:31;12.23;;;4.63;;
43813;SDS011;29669;55.706;37.656;2022-11-24T19:29:23;16.80;;;7.82;;
43813;SDS011;29669;55.706;37.656;2022-11-24T19:32:11;14.18;;;4.88;;
43813;SDS011;29669;55.706;37.656;2022-11-24T19:34:59;10.00;;;3.78;;
43813;SDS011;29669;55.706;37.656;2022-11-24T19:37:51;9.80;;;4.22;;
43813;SDS011;29669;55.706;37.656;2022-11-24T19:40:44;9.95;;;3.85;;
43813;SDS011;29669;55.706;37.656;2022-11-24T19:43:37;8.45;;;4.13;;
43813;SDS011;29669;55.706;37.656;2022-11-24T19:46:35;9.57;;;4.03;;
43813;SDS011;29669;55.706;37.656;2022-11-24T19:49:31;9.68;;;4.25;;
43813;SDS011;29669;55.706;37.656;2022-11-24T19:52:22;9.85;;;3.97;;
43813;SDS011;29669;55.706;37.656;2022-11-24T19:55:16;7.32;;;3.85;;
43813;SDS011;29669;55.706;37.656;2022-11-24T19:58:04;7.07;;;3.25;;
43813;SDS011;29669;55.706;37.656;2022-11-24T20:01:14;11.63;;;4.18;;
43813;SDS011;29669;55.706;37.656;2022-11-24T20:04:06;9.70;;;3.80;;
43813;SDS011;29669;55.706;37.656;2022-11-24T20:06:55;12.73;;;4.10;;
43813;SDS011;29669;55.706;37.656;2022-11-24T20:09:43;8.43;;;3.63;;
43813;SDS011;29669;55.706;37.656;2022-11-24T20:12:31;7.22;;;3.45;;
43813;SDS011;29669;55.706;37.656;2022-11-24T20:15:19;6.20;;;3.10;;
43813;SDS011;29669;55.706;37.656;2022-11-24T20:18:07;8.55;;;3.25;;
43813;SDS011;29669;55.706;37.656;2022-11-24T20:20:59;5.88;;;2.65;;
43813;SDS011;29669;55.706;37.656;2022-11-24T20:23:52;10.80;;;3.20;;
43813;SDS011;29669;55.706;37.656;2022-11-24T20:26:43;4.40;;;2.72;;
43813;SDS011;29669;55.706;37.656;2022-11-24T20:29:33;6.97;;;2.60;;
43813;SDS011;29669;55.706;37.656;2022-11-24T20:32:20;14.10;;;4.50;;
43813;SDS011;29669;55.706;37.656;2022-11-24T20:35:08;5.25;;;2.95;;
43813;SDS011;29669;55.706;37.656;2022-11-24T20:38:04;5.07;;;2.80;;
43813;SDS011;29669;55.706;37.656;2022-11-24T20:40:51;8.18;;;3.35;;
43813;SDS011;29669;55.706;37.656;2022-11-24T20:43:40;8.75;;;3.63;;
43813;SDS011;29669;55.706;37.656;2022-11-24T20:46:29;5.50;;;2.67;;
43813;SDS011;29669;55.706;37.656;2022-11-24T20:49:18;6.85;;;3.78;;
43813;SDS011;29669;55.706;37.656;2022-11-24T20:52:08;7.78;;;3.22;;
43813;SDS011;29669;55.706;37.656;2022-11-24T20:54:55;5.22;;;2.55;;
43813;SDS011;29669;55.706;37.656;2022-11-24T20:57:44;7.00;;;3.50;;
43813;SDS011;29669;55.706;37.656;2022-11-24T21:00:32;9.15;;;3.70;;
43813;SDS011;29669;55.706;37.656;2022-11-24T21:03:19;5.70;;;2.70;;
43813;SDS011;29669;55.706;37.656;2022-11-24T21:06:07;6.00;;;3.40;;
43813;SDS011;29669;55.706;37.656;2022-11-24T21:08:56;6.85;;;3.60;;
43813;SDS011;29669;55.706;37.656;2022-11-24T21:11:50;8.95;;;3.88;;
43813;SDS011;29669;55.706;37.656;2022-11-24T21:14:37;9.32;;;3.05;;
43813;SDS011;29669;55.706;37.656;2022-11-24T21:17:26;6.75;;;3.45;;
43813;SDS011;29669;55.706;37.656;2022-11-24T21:20:13;6.22;;;3.13;;
43813;SDS011;29669;55.706;37.656;2022-11-24T21:23:01;6.15;;;2.58;;